sensor_id;sensor_type;location;lat;lon;timestamp;P1;durP1;ratioP1;P2;durP2;ratioP2
13706;SDS011;6925;47.816;13.072;2023-04-02T13:54:06;5.33;;;2.20;;
13706;SDS011;6925;47.816;13.072;2023-04-02T13:56:38;5.65;;;2.10;;
13706;SDS011;6925;47.816;13.072;2023-04-02T14:01:56;3.47;;;1.10;;
13706;SDS011;6925;47.816;13.072;2023-04-02T14:04:36;3.15;;;0.90;;
13706;SDS011;6925;47.816;13.072;2023-04-02T14:07:47;3.53;;;1.00;;
13706;SDS011;6925;47.816;13.072;2023-04-02T14:13:47;2.97;;;1.27;;
13706;SDS011;6925;47.816;13.072;2023-04-02T14:16:52;3.15;;;0.73;;
13706;SDS011;6925;47.816;13.072;2023-04-02T14:22:46;2.80;;;1.10;;
13706;SDS011;6925;47.816;13.072;2023-04-02T14:32:41;5.35;;;2.35;;
13706;SDS011;6925;47.816;13.072;2023-04-02T14:41:58;4.88;;;2.83;;
13706;SDS011;6925;47.816;13.072;2023-04-02T14:52:04;5.05;;;1.88;;
13706;SDS011;6925;47.816;13.072;2023-04-02T14:54:47;3.05;;;0.95;;
13706;SDS011;6925;47.816;13.072;2023-04-02T14:57:49;2.08;;;0.88;;
13706;SDS011;6925;47.816;13.072;2023-04-02T15:03:44;2.00;;;1.08;;
13706;SDS011;6925;47.816;13.072;2023-04-02T15:06:22;2.58;;;1.05;;
13706;SDS011;6925;47.816;13.072;2023-04-02T15:08:59;2.17;;;0.90;;
13706;SDS011;6925;47.816;13.072;2023-04-02T15:11:33;2.03;;;0.80;;
13706;SDS011;6925;47.816;13.072;2023-04-02T15:14:10;2.00;;;0.85;;
13706;SDS011;6925;47.816;13.072;2023-04-02T15:16:45;2.25;;;1.10;;
13706;SDS011;6925;47.816;13.072;2023-04-02T15:19:14;2.60;;;1.00;;
13706;SDS011;6925;47.816;13.072;2023-04-02T15:21:58;2.60;;;1.42;;
13706;SDS011;6925;47.816;13.072;2023-04-02T15:24:40;4.05;;;1.20;;
13706;SDS011;6925;47.816;13.072;2023-04-02T15:27:21;2.13;;;0.93;;
13706;SDS011;6925;47.816;13.072;2023-04-02T15:30:01;3.97;;;1.20;;
13706;SDS011;6925;47.816;13.072;2023-04-02T15:32:39;2.63;;;0.90;;
13706;SDS011;6925;47.816;13.072;2023-04-02T15:39:08;3.15;;;1.50;;
13706;SDS011;6925;47.816;13.072;2023-04-02T15:41:59;5.53;;;1.50;;
13706;SDS011;6925;47.816;13.072;2023-04-02T15:44:43;5.03;;;1.30;;
13706;SDS011;6925;47.816;13.072;2023-04-02T15:47:24;5.57;;;2.10;;
13706;SDS011;6925;47.816;13.072;2023-04-02T15:50:01;4.50;;;1.60;;
13706;SDS011;6925;47.816;13.072;2023-04-02T15:53:00;4.68;;;1.55;;
13706;SDS011;6925;47.816;13.072;2023-04-02T15:55:40;3.35;;;1.60;;
13706;SDS011;6925;47.816;13.072;2023-04-02T15:58:17;4.18;;;1.80;;
13706;SDS011;6925;47.816;13.072;2023-04-02T16:00:54;4.25;;;1.85;;
13706;SDS011;6925;47.816;13.072;2023-04-02T16:03:38;3.00;;;1.60;;
13706;SDS011;6925;47.816;13.072;2023-04-02T16:06:31;4.05;;;1.77;;
13706;SDS011;6925;47.816;13.072;2023-04-02T16:09:13;3.65;;;1.77;;
13706;SDS011;6925;47.816;13.072;2023-04-02T16:11:49;6.88;;;3.03;;
13706;SDS011;6925;47.816;13.072;2023-04-02T16:14:42;8.40;;;3.13;;
13706;SDS011;6925;47.816;13.072;2023-04-02T16:19:47;4.45;;;2.10;;
13706;SDS011;6925;47.816;13.072;2023-04-02T16:22:20;4.55;;;2.45;;
13706;SDS011;6925;47.816;13.072;2023-04-02T16:24:55;5.00;;;1.80;;
13706;SDS011;6925;47.816;13.072;2023-04-02T16:27:30;3.05;;;1.65;;
13706;SDS011;6925;47.816;13.072;2023-04-02T16:30:11;3.42;;;1.52;;
13706;SDS011;6925;47.816;13.072;2023-04-02T16:32:55;3.70;;;1.40;;
13706;SDS011;6925;47.816;13.072;2023-04-02T16:35:31;5.97;;;1.80;;
13706;SDS011;6925;47.816;13.072;2023-04-02T16:38:08;3.88;;;1.45;;
13706;SDS011;6925;47.816;13.072;2023-04-02T16:40:44;2.83;;;1.55;;
13706;SDS011;6925;47.816;13.072;2023-04-02T16:43:20;3.03;;;1.25;;
13706;SDS011;6925;47.816;13.072;2023-04-02T16:45:58;5.05;;;1.60;;
13706;SDS011;6925;47.816;13.072;2023-04-02T16:48:34;3.40;;;1.70;;
13706;SDS011;6925;47.816;13.072;2023-04-02T16:51:08;3.25;;;1.52;;
13706;SDS011;6925;47.816;13.072;2023-04-02T16:53:46;3.80;;;1.80;;
13706;SDS011;6925;47.816;13.072;2023-04-02T16:56:24;2.90;;;1.58;;
13706;SDS011;6925;47.816;13.072;2023-04-02T16:59:02;3.35;;;1.45;;
13706;SDS011;6925;47.816;13.072;2023-04-02T17:01:43;3.22;;;1.50;;
13706;SDS011;6925;47.816;13.072;2023-04-02T17:04:25;2.92;;;1.42;;
13706;SDS011;6925;47.816;13.072;2023-04-02T17:07:14;3.58;;;2.00;;
13706;SDS011;6925;47.816;13.072;2023-04-02T17:10:22;4.75;;;1.70;;
13706;SDS011;6925;47.816;13.072;2023-04-02T17:12:57;5.70;;;2.70;;
13706;SDS011;6925;47.816;13.072;2023-04-02T17:15:31;4.43;;;2.33;;
13706;SDS011;6925;47.816;13.072;2023-04-02T17:18:07;5.70;;;2.58;;
13706;SDS011;6925;47.816;13.072;2023-04-02T17:20:39;5.93;;;3.03;;
13706;SDS011;6925;47.816;13.072;2023-04-02T17:23:08;6.72;;;2.50;;
13706;SDS011;6925;47.816;13.072;2023-04-02T17:25:40;3.67;;;1.38;;
13706;SDS011;6925;47.816;13.072;2023-04-02T17:28:13;3.63;;;1.20;;
13706;SDS011;6925;47.816;13.072;2023-04-02T17:30:49;3.15;;;1.02;;
13706;SDS011;6925;47.816;13.072;2023-04-02T17:33:22;2.83;;;1.30;;
13706;SDS011;6925;47.816;13.072;2023-04-02T17:35:54;2.35;;;1.10;;
13706;SDS011;6925;47.816;13.072;2023-04-02T17:38:53;1.60;;;0.80;;
13706;SDS011;6925;47.816;13.072;2023-04-02T17:41:30;1.95;;;0.80;;
13706;SDS011;6925;47.816;13.072;2023-04-02T17:44:05;0.95;;;0.50;;
13706;SDS011;6925;47.816;13.072;2023-04-02T17:46:50;1.75;;;0.30;;
13706;SDS011;6925;47.816;13.072;2023-04-02T17:49:27;0.55;;;0.32;;
13706;SDS011;6925;47.816;13.072;2023-04-02T17:52:02;0.98;;;0.57;;
13706;SDS011;6925;47.816;13.072;2023-04-02T17:54:37;1.02;;;0.50;;
13706;SDS011;6925;47.816;13.072;2023-04-02T17:57:18;1.67;;;0.70;;
13706;SDS011;6925;47.816;13.072;2023-04-02T18:00:05;1.15;;;0.55;;
13706;SDS011;6925;47.816;13.072;2023-04-02T18:02:57;0.68;;;0.45;;
13706;SDS011;6925;47.816;13.072;2023-04-02T18:05:37;0.63;;;0.40;;
13706;SDS011;6925;47.816;13.072;2023-04-02T18:08:11;0.75;;;0.40;;
13706;SDS011;6925;47.816;13.072;2023-04-02T18:10:50;1.95;;;0.40;;
13706;SDS011;6925;47.816;13.072;2023-04-02T18:13:29;2.50;;;0.70;;
13706;SDS011;6925;47.816;13.072;2023-04-02T18:16:08;0.73;;;0.40;;
13706;SDS011;6925;47.816;13.072;2023-04-02T18:18:55;0.30;;;0.30;;
13706;SDS011;6925;47.816;13.072;2023-04-02T18:21:37;0.85;;;0.50;;
13706;SDS011;6925;47.816;13.072;2023-04-02T18:24:27;0.32;;;0.32;;
13706;SDS011;6925;47.816;13.072;2023-04-02T18:27:07;0.38;;;0.32;;
13706;SDS011;6925;47.816;13.072;2023-04-02T18:29:55;0.57;;;0.30;;
13706;SDS011;6925;47.816;13.072;2023-04-02T18:32:45;0.40;;;0.40;;
13706;SDS011;6925;47.816;13.072;2023-04-02T18:35:32;0.65;;;0.40;;
13706;SDS011;6925;47.816;13.072;2023-04-02T18:38:05;1.42;;;0.63;;
13706;SDS011;6925;47.816;13.072;2023-04-02T18:40:48;2.90;;;0.70;;
13706;SDS011;6925;47.816;13.072;2023-04-02T18:43:28;0.77;;;0.47;;
13706;SDS011;6925;47.816;13.072;2023-04-02T18:46:04;1.73;;;0.50;;
13706;SDS011;6925;47.816;13.072;2023-04-02T18:48:40;1.33;;;0.70;;
13706;SDS011;6925;47.816;13.072;2023-04-02T18:51:17;0.63;;;0.40;;
13706;SDS011;6925;47.816;13.072;2023-04-02T18:53:49;2.17;;;0.50;;
13706;SDS011;6925;47.816;13.072;2023-04-02T18:56:20;1.67;;;0.52;;
13706;SDS011;6925;47.816;13.072;2023-04-02T18:58:52;1.17;;;0.50;;
13706;SDS011;6925;47.816;13.072;2023-04-02T19:03:53;1.30;;;0.50;;
13706;SDS011;6925;47.816;13.072;2023-04-02T19:06:28;0.70;;;0.40;;
13706;SDS011;6925;47.816;13.072;2023-04-02T19:09:03;1.17;;;0.50;;
13706;SDS011;6925;47.816;13.072;2023-04-02T19:11:37;0.88;;;0.45;;
13706;SDS011;6925;47.816;13.072;2023-04-02T19:14:06;1.48;;;0.60;;
13706;SDS011;6925;47.816;13.072;2023-04-02T19:16:45;0.57;;;0.40;;
13706;SDS011;6925;47.816;13.072;2023-04-02T19:19:25;1.75;;;0.43;;
13706;SDS011;6925;47.816;13.072;2023-04-02T19:22:05;2.13;;;0.63;;
13706;SDS011;6925;47.816;13.072;2023-04-02T19:24:47;3.13;;;1.55;;
13706;SDS011;6925;47.816;13.072;2023-04-02T19:27:33;4.10;;;1.38;;
13706;SDS011;6925;47.816;13.072;2023-04-02T19:30:26;3.03;;;1.15;;
13706;SDS011;6925;47.816;13.072;2023-04-02T19:33:01;2.85;;;1.23;;
13706;SDS011;6925;47.816;13.072;2023-04-02T19:35:38;2.15;;;1.00;;
13706;SDS011;6925;47.816;13.072;2023-04-02T19:38:13;2.20;;;1.10;;
13706;SDS011;6925;47.816;13.072;2023-04-02T19:40:51;2.90;;;1.27;;
13706;SDS011;6925;47.816;13.072;2023-04-02T19:43:24;3.05;;;1.50;;
13706;SDS011;6925;47.816;13.072;2023-04-02T19:45:52;3.65;;;1.65;;
13706;SDS011;6925;47.816;13.072;2023-04-02T19:48:19;3.45;;;1.58;;
13706;SDS011;6925;47.816;13.072;2023-04-02T19:50:50;3.40;;;1.77;;
13706;SDS011;6925;47.816;13.072;2023-04-02T19:53:18;3.88;;;1.98;;
13706;SDS011;6925;47.816;13.072;2023-04-02T19:55:45;3.80;;;2.10;;
13706;SDS011;6925;47.816;13.072;2023-04-02T19:58:17;4.63;;;2.30;;
13706;SDS011;6925;47.816;13.072;2023-04-02T20:00:51;3.97;;;2.20;;
13706;SDS011;6925;47.816;13.072;2023-04-02T20:03:18;3.60;;;2.28;;
13706;SDS011;6925;47.816;13.072;2023-04-02T20:05:46;4.07;;;2.33;;
13706;SDS011;6925;47.816;13.072;2023-04-02T20:08:13;4.25;;;2.47;;
13706;SDS011;6925;47.816;13.072;2023-04-02T20:10:40;3.05;;;1.92;;
13706;SDS011;6925;47.816;13.072;2023-04-02T20:13:08;3.95;;;2.05;;
13706;SDS011;6925;47.816;13.072;2023-04-02T20:15:37;4.88;;;2.20;;
13706;SDS011;6925;47.816;13.072;2023-04-02T20:18:05;4.57;;;2.22;;
13706;SDS011;6925;47.816;13.072;2023-04-02T20:20:33;3.70;;;2.00;;
13706;SDS011;6925;47.816;13.072;2023-04-02T20:23:00;4.10;;;2.33;;
13706;SDS011;6925;47.816;13.072;2023-04-02T20:25:27;3.92;;;2.13;;
13706;SDS011;6925;47.816;13.072;2023-04-02T20:27:55;4.18;;;2.40;;
13706;SDS011;6925;47.816;13.072;2023-04-02T20:30:22;4.32;;;2.40;;
13706;SDS011;6925;47.816;13.072;2023-04-02T20:32:51;4.43;;;2.17;;
13706;SDS011;6925;47.816;13.072;2023-04-02T20:35:19;4.20;;;2.45;;
13706;SDS011;6925;47.816;13.072;2023-04-02T20:37:46;4.28;;;2.47;;
13706;SDS011;6925;47.816;13.072;2023-04-02T20:40:14;4.57;;;2.70;;
13706;SDS011;6925;47.816;13.072;2023-04-02T20:42:41;5.22;;;3.05;;
13706;SDS011;6925;47.816;13.072;2023-04-02T20:45:11;5.75;;;3.00;;
13706;SDS011;6925;47.816;13.072;2023-04-02T20:47:40;5.28;;;3.00;;
13706;SDS011;6925;47.816;13.072;2023-04-02T20:50:09;4.90;;;3.25;;
13706;SDS011;6925;47.816;13.072;2023-04-02T20:52:39;5.65;;;3.53;;
13706;SDS011;6925;47.816;13.072;2023-04-02T20:55:08;6.57;;;3.72;;
13706;SDS011;6925;47.816;13.072;2023-04-02T20:57:35;5.80;;;3.78;;
13706;SDS011;6925;47.816;13.072;2023-04-02T21:00:03;6.40;;;3.90;;
13706;SDS011;6925;47.816;13.072;2023-04-02T21:02:32;6.85;;;4.15;;
13706;SDS011;6925;47.816;13.072;2023-04-02T21:04:59;5.63;;;3.40;;
13706;SDS011;6925;47.816;13.072;2023-04-02T21:07:28;5.38;;;3.42;;
13706;SDS011;6925;47.816;13.072;2023-04-02T21:09:55;5.80;;;3.60;;
13706;SDS011;6925;47.816;13.072;2023-04-02T21:12:22;6.22;;;3.97;;
13706;SDS011;6925;47.816;13.072;2023-04-02T21:14:50;6.75;;;4.43;;
13706;SDS011;6925;47.816;13.072;2023-04-02T21:17:21;6.78;;;4.38;;
13706;SDS011;6925;47.816;13.072;2023-04-02T21:19:48;7.03;;;4.65;;
13706;SDS011;6925;47.816;13.072;2023-04-02T21:22:15;6.47;;;3.90;;
13706;SDS011;6925;47.816;13.072;2023-04-02T21:24:44;6.57;;;4.47;;
13706;SDS011;6925;47.816;13.072;2023-04-02T21:27:11;8.07;;;4.32;;
13706;SDS011;6925;47.816;13.072;2023-04-02T21:29:38;6.88;;;4.32;;
13706;SDS011;6925;47.816;13.072;2023-04-02T21:32:06;7.55;;;3.88;;
13706;SDS011;6925;47.816;13.072;2023-04-02T21:34:33;6.47;;;4.20;;
13706;SDS011;6925;47.816;13.072;2023-04-02T21:37:00;8.15;;;4.55;;
13706;SDS011;6925;47.816;13.072;2023-04-02T21:39:27;7.22;;;4.03;;
13706;SDS011;6925;47.816;13.072;2023-04-02T21:41:56;7.07;;;4.28;;
13706;SDS011;6925;47.816;13.072;2023-04-02T21:44:23;6.35;;;3.80;;
13706;SDS011;6925;47.816;13.072;2023-04-02T21:46:51;6.75;;;3.80;;
13706;SDS011;6925;47.816;13.072;2023-04-02T21:49:18;7.93;;;4.32;;
13706;SDS011;6925;47.816;13.072;2023-04-02T21:51:47;5.93;;;3.72;;
13706;SDS011;6925;47.816;13.072;2023-04-02T21:54:16;6.78;;;4.18;;
13706;SDS011;6925;47.816;13.072;2023-04-02T21:56:44;6.47;;;3.95;;
13706;SDS011;6925;47.816;13.072;2023-04-02T21:59:14;6.72;;;3.70;;
13706;SDS011;6925;47.816;13.072;2023-04-02T22:01:43;6.60;;;3.65;;
13706;SDS011;6925;47.816;13.072;2023-04-02T22:04:13;7.97;;;3.95;;
13706;SDS011;6925;47.816;13.072;2023-04-02T22:06:42;6.55;;;3.65;;
13706;SDS011;6925;47.816;13.072;2023-04-02T22:09:11;7.65;;;4.20;;
13706;SDS011;6925;47.816;13.072;2023-04-02T22:11:40;6.22;;;3.97;;
13706;SDS011;6925;47.816;13.072;2023-04-02T22:14:10;8.43;;;4.60;;
13706;SDS011;6925;47.816;13.072;2023-04-02T22:16:39;7.50;;;4.85;;
13706;SDS011;6925;47.816;13.072;2023-04-02T22:19:07;6.55;;;3.63;;
13706;SDS011;6925;47.816;13.072;2023-04-02T22:21:36;7.03;;;4.40;;
13706;SDS011;6925;47.816;13.072;2023-04-02T22:24:05;7.45;;;4.50;;
13706;SDS011;6925;47.816;13.072;2023-04-02T22:26:34;6.07;;;3.83;;
13706;SDS011;6925;47.816;13.072;2023-04-02T22:29:02;6.47;;;4.35;;
13706;SDS011;6925;47.816;13.072;2023-04-02T22:31:30;7.00;;;4.30;;
13706;SDS011;6925;47.816;13.072;2023-04-02T22:34:00;6.72;;;3.80;;
13706;SDS011;6925;47.816;13.072;2023-04-02T22:36:28;8.80;;;4.80;;
13706;SDS011;6925;47.816;13.072;2023-04-02T22:38:56;6.45;;;4.45;;
13706;SDS011;6925;47.816;13.072;2023-04-02T22:41:24;6.45;;;4.15;;
13706;SDS011;6925;47.816;13.072;2023-04-02T22:43:53;7.88;;;4.70;;
13706;SDS011;6925;47.816;13.072;2023-04-02T22:46:21;7.75;;;5.53;;
13706;SDS011;6925;47.816;13.072;2023-04-02T22:48:50;8.18;;;4.50;;
13706;SDS011;6925;47.816;13.072;2023-04-02T22:51:19;9.50;;;5.50;;
13706;SDS011;6925;47.816;13.072;2023-04-02T22:53:48;7.65;;;4.15;;
13706;SDS011;6925;47.816;13.072;2023-04-02T22:56:19;7.97;;;4.45;;
13706;SDS011;6925;47.816;13.072;2023-04-02T22:58:47;10.23;;;5.00;;
13706;SDS011;6925;47.816;13.072;2023-04-02T23:01:16;9.63;;;4.65;;
13706;SDS011;6925;47.816;13.072;2023-04-02T23:03:45;8.95;;;5.10;;
13706;SDS011;6925;47.816;13.072;2023-04-02T23:08:42;8.13;;;4.43;;
13706;SDS011;6925;47.816;13.072;2023-04-02T23:11:10;7.85;;;4.72;;
13706;SDS011;6925;47.816;13.072;2023-04-02T23:13:40;8.38;;;4.95;;
13706;SDS011;6925;47.816;13.072;2023-04-02T23:16:09;6.97;;;4.40;;
13706;SDS011;6925;47.816;13.072;2023-04-02T23:18:38;7.30;;;4.25;;
13706;SDS011;6925;47.816;13.072;2023-04-02T23:21:06;9.10;;;4.68;;
13706;SDS011;6925;47.816;13.072;2023-04-02T23:23:34;7.53;;;4.63;;
13706;SDS011;6925;47.816;13.072;2023-04-02T23:26:05;8.55;;;4.35;;
13706;SDS011;6925;47.816;13.072;2023-04-02T23:28:34;6.60;;;3.88;;
13706;SDS011;6925;47.816;13.072;2023-04-02T23:31:03;8.07;;;5.30;;
13706;SDS011;6925;47.816;13.072;2023-04-02T23:33:32;7.75;;;4.75;;
13706;SDS011;6925;47.816;13.072;2023-04-02T23:35:59;8.43;;;4.22;;
13706;SDS011;6925;47.816;13.072;2023-04-02T23:38:32;8.43;;;4.47;;
13706;SDS011;6925;47.816;13.072;2023-04-02T23:40:59;7.60;;;4.53;;
13706;SDS011;6925;47.816;13.072;2023-04-02T23:43:28;7.63;;;4.55;;
13706;SDS011;6925;47.816;13.072;2023-04-02T23:45:55;9.98;;;4.90;;
13706;SDS011;6925;47.816;13.072;2023-04-02T23:48:22;7.07;;;4.78;;
13706;SDS011;6925;47.816;13.072;2023-04-02T23:50:50;9.23;;;4.10;;
13706;SDS011;6925;47.816;13.072;2023-04-02T23:53:17;7.85;;;4.30;;
13706;SDS011;6925;47.816;13.072;2023-04-02T23:55:44;7.90;;;4.32;;
13706;SDS011;6925;47.816;13.072;2023-04-02T23:58:11;6.72;;;3.88;;
